sensor_id;sensor_type;location;lat;lon;timestamp;P1;durP1;ratioP1;P2;durP2;ratioP2
60018;SDS011;45870;42.528;26.740;2023-03-21T00:00:37;0.08;;;0.08;;
60018;SDS011;45870;42.528;26.740;2023-03-21T00:03:03;1.25;;;0.38;;
60018;SDS011;45870;42.528;26.740;2023-03-21T00:05:30;1.70;;;0.88;;
60018;SDS011;45870;42.528;26.740;2023-03-21T00:07:56;0.63;;;0.63;;
60018;SDS011;45870;42.528;26.740;2023-03-21T00:10:22;1.70;;;0.73;;
60018;SDS011;45870;42.528;26.740;2023-03-21T00:12:48;0.65;;;0.32;;
60018;SDS011;45870;42.528;26.740;2023-03-21T00:15:23;0.32;;;0.30;;
60018;SDS011;45870;42.528;26.740;2023-03-21T00:17:54;1.00;;;0.43;;
60018;SDS011;45870;42.528;26.740;2023-03-21T00:20:29;0.85;;;0.68;;
60018;SDS011;45870;42.528;26.740;2023-03-21T00:22:58;0.25;;;0.25;;
60018;SDS011;45870;42.528;26.740;2023-03-21T00:25:26;0.20;;;0.20;;
60018;SDS011;45870;42.528;26.740;2023-03-21T00:27:52;1.40;;;0.47;;
60018;SDS011;45870;42.528;26.740;2023-03-21T00:30:18;0.95;;;0.85;;
60018;SDS011;45870;42.528;26.740;2023-03-21T00:32:45;0.20;;;0.20;;
60018;SDS011;45870;42.528;26.740;2023-03-21T00:35:11;2.22;;;1.20;;
60018;SDS011;45870;42.528;26.740;2023-03-21T00:37:37;0.30;;;0.30;;
60018;SDS011;45870;42.528;26.740;2023-03-21T00:40:03;0.35;;;0.25;;
60018;SDS011;45870;42.528;26.740;2023-03-21T00:42:36;0.30;;;0.30;;
60018;SDS011;45870;42.528;26.740;2023-03-21T00:45:02;0.80;;;0.57;;
60018;SDS011;45870;42.528;26.740;2023-03-21T00:50:00;2.47;;;0.90;;
60018;SDS011;45870;42.528;26.740;2023-03-21T00:52:25;0.47;;;0.43;;
60018;SDS011;45870;42.528;26.740;2023-03-21T00:54:51;0.80;;;0.40;;
60018;SDS011;45870;42.528;26.740;2023-03-21T00:57:17;0.85;;;0.32;;
60018;SDS011;45870;42.528;26.740;2023-03-21T00:59:43;3.15;;;1.33;;
60018;SDS011;45870;42.528;26.740;2023-03-21T01:02:09;0.65;;;0.65;;
60018;SDS011;45870;42.528;26.740;2023-03-21T01:04:38;0.85;;;0.85;;
60018;SDS011;45870;42.528;26.740;2023-03-21T01:07:07;1.17;;;0.55;;
60018;SDS011;45870;42.528;26.740;2023-03-21T01:09:32;0.82;;;0.82;;
60018;SDS011;45870;42.528;26.740;2023-03-21T01:11:58;0.85;;;0.28;;
60018;SDS011;45870;42.528;26.740;2023-03-21T01:14:23;1.63;;;0.55;;
60018;SDS011;45870;42.528;26.740;2023-03-21T01:16:50;0.10;;;0.10;;
60018;SDS011;45870;42.528;26.740;2023-03-21T01:19:17;0.80;;;0.50;;
60018;SDS011;45870;42.528;26.740;2023-03-21T01:21:44;0.73;;;0.70;;
60018;SDS011;45870;42.528;26.740;2023-03-21T01:24:10;1.40;;;0.90;;
60018;SDS011;45870;42.528;26.740;2023-03-21T01:26:36;6.20;;;0.77;;
60018;SDS011;45870;42.528;26.740;2023-03-21T01:29:03;1.02;;;0.93;;
60018;SDS011;45870;42.528;26.740;2023-03-21T01:31:28;0.22;;;0.22;;
60018;SDS011;45870;42.528;26.740;2023-03-21T01:33:54;0.75;;;0.60;;
60018;SDS011;45870;42.528;26.740;2023-03-21T01:36:21;0.50;;;0.50;;
60018;SDS011;45870;42.528;26.740;2023-03-21T01:38:48;0.20;;;0.20;;
60018;SDS011;45870;42.528;26.740;2023-03-21T01:43:53;1.48;;;0.63;;
60018;SDS011;45870;42.528;26.740;2023-03-21T01:49:24;0.47;;;0.38;;
60018;SDS011;45870;42.528;26.740;2023-03-21T01:52:00;0.40;;;0.40;;
60018;SDS011;45870;42.528;26.740;2023-03-21T01:54:31;0.30;;;0.28;;
60018;SDS011;45870;42.528;26.740;2023-03-21T01:57:02;1.05;;;0.80;;
60018;SDS011;45870;42.528;26.740;2023-03-21T01:59:36;0.85;;;0.85;;
60018;SDS011;45870;42.528;26.740;2023-03-21T02:02:10;1.75;;;0.60;;
60018;SDS011;45870;42.528;26.740;2023-03-21T02:04:42;1.23;;;1.13;;
60018;SDS011;45870;42.528;26.740;2023-03-21T02:07:27;0.85;;;0.57;;
60018;SDS011;45870;42.528;26.740;2023-03-21T02:10:02;1.23;;;1.13;;
60018;SDS011;45870;42.528;26.740;2023-03-21T02:12:32;1.00;;;0.70;;
60018;SDS011;45870;42.528;26.740;2023-03-21T02:14:59;1.15;;;0.40;;
60018;SDS011;45870;42.528;26.740;2023-03-21T02:17:37;0.40;;;0.30;;
60018;SDS011;45870;42.528;26.740;2023-03-21T02:20:31;0.50;;;0.50;;
60018;SDS011;45870;42.528;26.740;2023-03-21T02:23:25;3.65;;;0.40;;
60018;SDS011;45870;42.528;26.740;2023-03-21T02:31:35;0.60;;;0.47;;
60018;SDS011;45870;42.528;26.740;2023-03-21T02:47:41;0.88;;;0.43;;
60018;SDS011;45870;42.528;26.740;2023-03-21T02:52:47;1.67;;;1.00;;
60018;SDS011;45870;42.528;26.740;2023-03-21T02:55:24;0.63;;;0.63;;
60018;SDS011;45870;42.528;26.740;2023-03-21T02:57:53;0.95;;;0.77;;
60018;SDS011;45870;42.528;26.740;2023-03-21T03:00:22;0.70;;;0.63;;
60018;SDS011;45870;42.528;26.740;2023-03-21T03:02:52;0.75;;;0.75;;
60018;SDS011;45870;42.528;26.740;2023-03-21T03:05:20;1.05;;;0.93;;
60018;SDS011;45870;42.528;26.740;2023-03-21T03:07:58;1.98;;;1.20;;
60018;SDS011;45870;42.528;26.740;2023-03-21T03:16:26;2.33;;;1.17;;
60018;SDS011;45870;42.528;26.740;2023-03-21T03:24:36;0.85;;;0.70;;
60018;SDS011;45870;42.528;26.740;2023-03-21T03:27:14;8.25;;;1.38;;
60018;SDS011;45870;42.528;26.740;2023-03-21T03:29:43;0.98;;;0.68;;
60018;SDS011;45870;42.528;26.740;2023-03-21T03:34:52;0.80;;;0.80;;
60018;SDS011;45870;42.528;26.740;2023-03-21T03:37:23;2.50;;;1.00;;
60018;SDS011;45870;42.528;26.740;2023-03-21T03:40:06;0.50;;;0.50;;
60018;SDS011;45870;42.528;26.740;2023-03-21T03:42:37;0.60;;;0.57;;
60018;SDS011;45870;42.528;26.740;2023-03-21T03:45:08;0.40;;;0.40;;
60018;SDS011;45870;42.528;26.740;2023-03-21T03:50:08;0.98;;;0.55;;
60018;SDS011;45870;42.528;26.740;2023-03-21T03:52:41;1.30;;;0.55;;
60018;SDS011;45870;42.528;26.740;2023-03-21T03:55:13;1.05;;;0.43;;
60018;SDS011;45870;42.528;26.740;2023-03-21T03:57:41;1.48;;;0.90;;
60018;SDS011;45870;42.528;26.740;2023-03-21T04:00:09;0.85;;;0.35;;
60018;SDS011;45870;42.528;26.740;2023-03-21T04:02:37;2.28;;;1.05;;
60018;SDS011;45870;42.528;26.740;2023-03-21T04:05:03;3.38;;;1.15;;
60018;SDS011;45870;42.528;26.740;2023-03-21T04:07:29;0.70;;;0.68;;
60018;SDS011;45870;42.528;26.740;2023-03-21T04:09:55;1.02;;;0.93;;
60018;SDS011;45870;42.528;26.740;2023-03-21T04:12:22;1.58;;;0.70;;
60018;SDS011;45870;42.528;26.740;2023-03-21T04:14:48;2.25;;;0.70;;
60018;SDS011;45870;42.528;26.740;2023-03-21T04:17:13;7.00;;;1.48;;
60018;SDS011;45870;42.528;26.740;2023-03-21T04:19:39;1.85;;;0.63;;
60018;SDS011;45870;42.528;26.740;2023-03-21T04:22:05;3.03;;;1.02;;
60018;SDS011;45870;42.528;26.740;2023-03-21T04:24:31;1.10;;;0.85;;
60018;SDS011;45870;42.528;26.740;2023-03-21T04:26:58;2.15;;;1.00;;
60018;SDS011;45870;42.528;26.740;2023-03-21T04:29:24;1.35;;;1.13;;
60018;SDS011;45870;42.528;26.740;2023-03-21T04:31:54;2.15;;;0.65;;
60018;SDS011;45870;42.528;26.740;2023-03-21T04:34:20;0.77;;;0.45;;
60018;SDS011;45870;42.528;26.740;2023-03-21T04:36:48;0.68;;;0.45;;
60018;SDS011;45870;42.528;26.740;2023-03-21T04:39:15;0.93;;;0.88;;
60018;SDS011;45870;42.528;26.740;2023-03-21T04:41:43;2.22;;;1.67;;
60018;SDS011;45870;42.528;26.740;2023-03-21T04:44:10;2.90;;;1.17;;
60018;SDS011;45870;42.528;26.740;2023-03-21T04:46:37;1.70;;;0.60;;
60018;SDS011;45870;42.528;26.740;2023-03-21T04:49:04;2.20;;;0.73;;
60018;SDS011;45870;42.528;26.740;2023-03-21T04:51:31;0.95;;;0.85;;
60018;SDS011;45870;42.528;26.740;2023-03-21T04:53:57;1.48;;;0.80;;
60018;SDS011;45870;42.528;26.740;2023-03-21T04:56:24;1.00;;;0.82;;
60018;SDS011;45870;42.528;26.740;2023-03-21T04:58:56;1.88;;;1.23;;
60018;SDS011;45870;42.528;26.740;2023-03-21T05:01:23;1.00;;;0.80;;
60018;SDS011;45870;42.528;26.740;2023-03-21T05:03:50;2.92;;;2.13;;
60018;SDS011;45870;42.528;26.740;2023-03-21T05:06:16;1.75;;;0.77;;
60018;SDS011;45870;42.528;26.740;2023-03-21T05:08:42;2.53;;;1.63;;
60018;SDS011;45870;42.528;26.740;2023-03-21T05:11:08;2.30;;;1.42;;
60018;SDS011;45870;42.528;26.740;2023-03-21T05:13:34;2.70;;;2.47;;
60018;SDS011;45870;42.528;26.740;2023-03-21T05:15:59;1.45;;;0.73;;
60018;SDS011;45870;42.528;26.740;2023-03-21T05:18:25;2.63;;;1.27;;
60018;SDS011;45870;42.528;26.740;2023-03-21T05:20:53;2.38;;;1.08;;
60018;SDS011;45870;42.528;26.740;2023-03-21T05:23:20;0.38;;;0.30;;
60018;SDS011;45870;42.528;26.740;2023-03-21T05:25:46;1.48;;;0.85;;
60018;SDS011;45870;42.528;26.740;2023-03-21T05:28:12;1.17;;;0.85;;
60018;SDS011;45870;42.528;26.740;2023-03-21T05:30:38;0.70;;;0.70;;
60018;SDS011;45870;42.528;26.740;2023-03-21T05:33:04;1.38;;;0.77;;
60018;SDS011;45870;42.528;26.740;2023-03-21T05:35:29;2.10;;;1.58;;
60018;SDS011;45870;42.528;26.740;2023-03-21T05:37:56;0.70;;;0.50;;
60018;SDS011;45870;42.528;26.740;2023-03-21T05:40:22;1.00;;;0.80;;
60018;SDS011;45870;42.528;26.740;2023-03-21T05:42:48;0.57;;;0.57;;
60018;SDS011;45870;42.528;26.740;2023-03-21T05:45:14;0.80;;;0.80;;
60018;SDS011;45870;42.528;26.740;2023-03-21T05:47:40;0.40;;;0.30;;
60018;SDS011;45870;42.528;26.740;2023-03-21T05:50:06;3.22;;;0.55;;
60018;SDS011;45870;42.528;26.740;2023-03-21T05:52:33;2.38;;;1.42;;
60018;SDS011;45870;42.528;26.740;2023-03-21T05:54:58;0.75;;;0.50;;
60018;SDS011;45870;42.528;26.740;2023-03-21T05:57:24;1.27;;;0.98;;
60018;SDS011;45870;42.528;26.740;2023-03-21T05:59:52;1.35;;;0.90;;
60018;SDS011;45870;42.528;26.740;2023-03-21T06:02:19;0.70;;;0.70;;
60018;SDS011;45870;42.528;26.740;2023-03-21T06:04:45;1.70;;;1.05;;
60018;SDS011;45870;42.528;26.740;2023-03-21T06:07:10;3.10;;;1.30;;
60018;SDS011;45870;42.528;26.740;2023-03-21T06:09:36;0.20;;;0.20;;
60018;SDS011;45870;42.528;26.740;2023-03-21T06:12:01;0.68;;;0.65;;
60018;SDS011;45870;42.528;26.740;2023-03-21T06:14:27;1.90;;;1.08;;
60018;SDS011;45870;42.528;26.740;2023-03-21T06:16:53;1.85;;;1.05;;
60018;SDS011;45870;42.528;26.740;2023-03-21T06:19:19;2.10;;;1.10;;
60018;SDS011;45870;42.528;26.740;2023-03-21T06:21:46;0.85;;;0.55;;
60018;SDS011;45870;42.528;26.740;2023-03-21T06:24:12;1.17;;;0.88;;
60018;SDS011;45870;42.528;26.740;2023-03-21T06:26:37;1.65;;;1.13;;
60018;SDS011;45870;42.528;26.740;2023-03-21T06:29:03;2.17;;;1.30;;
60018;SDS011;45870;42.528;26.740;2023-03-21T06:31:30;1.60;;;1.15;;
60018;SDS011;45870;42.528;26.740;2023-03-21T06:33:55;1.35;;;1.10;;
60018;SDS011;45870;42.528;26.740;2023-03-21T06:36:21;3.85;;;1.73;;
60018;SDS011;45870;42.528;26.740;2023-03-21T06:38:47;1.30;;;1.00;;
60018;SDS011;45870;42.528;26.740;2023-03-21T06:41:12;1.20;;;1.10;;
60018;SDS011;45870;42.528;26.740;2023-03-21T06:43:39;1.27;;;0.80;;
60018;SDS011;45870;42.528;26.740;2023-03-21T06:46:05;4.68;;;1.50;;
60018;SDS011;45870;42.528;26.740;2023-03-21T06:48:31;1.30;;;1.10;;
60018;SDS011;45870;42.528;26.740;2023-03-21T06:50:57;3.55;;;2.22;;
60018;SDS011;45870;42.528;26.740;2023-03-21T06:53:23;3.63;;;1.20;;
60018;SDS011;45870;42.528;26.740;2023-03-21T06:55:54;1.20;;;0.82;;
60018;SDS011;45870;42.528;26.740;2023-03-21T06:58:21;1.27;;;0.82;;
60018;SDS011;45870;42.528;26.740;2023-03-21T07:00:47;2.85;;;2.10;;
60018;SDS011;45870;42.528;26.740;2023-03-21T07:03:13;1.35;;;1.10;;
60018;SDS011;45870;42.528;26.740;2023-03-21T07:05:40;1.75;;;1.08;;
60018;SDS011;45870;42.528;26.740;2023-03-21T07:08:06;3.63;;;1.58;;
60018;SDS011;45870;42.528;26.740;2023-03-21T07:10:37;2.88;;;1.25;;
60018;SDS011;45870;42.528;26.740;2023-03-21T07:13:05;1.10;;;0.90;;
60018;SDS011;45870;42.528;26.740;2023-03-21T07:15:30;3.22;;;1.35;;
60018;SDS011;45870;42.528;26.740;2023-03-21T07:17:58;3.20;;;1.27;;
60018;SDS011;45870;42.528;26.740;2023-03-21T07:20:24;7.72;;;2.60;;
60018;SDS011;45870;42.528;26.740;2023-03-21T07:22:51;1.77;;;0.82;;
60018;SDS011;45870;42.528;26.740;2023-03-21T07:25:17;1.80;;;1.65;;
60018;SDS011;45870;42.528;26.740;2023-03-21T07:27:44;1.80;;;1.30;;
60018;SDS011;45870;42.528;26.740;2023-03-21T07:30:10;1.35;;;1.05;;
60018;SDS011;45870;42.528;26.740;2023-03-21T07:32:37;1.48;;;1.23;;
60018;SDS011;45870;42.528;26.740;2023-03-21T07:35:03;2.85;;;1.38;;
60018;SDS011;45870;42.528;26.740;2023-03-21T07:37:33;2.65;;;1.35;;
60018;SDS011;45870;42.528;26.740;2023-03-21T07:39:58;3.35;;;1.45;;
60018;SDS011;45870;42.528;26.740;2023-03-21T07:42:24;1.60;;;1.25;;
60018;SDS011;45870;42.528;26.740;2023-03-21T07:44:50;2.40;;;1.30;;
60018;SDS011;45870;42.528;26.740;2023-03-21T07:47:16;3.10;;;1.17;;
60018;SDS011;45870;42.528;26.740;2023-03-21T07:49:42;2.13;;;1.17;;
60018;SDS011;45870;42.528;26.740;2023-03-21T07:52:08;2.53;;;1.48;;
60018;SDS011;45870;42.528;26.740;2023-03-21T07:54:33;2.05;;;1.42;;
60018;SDS011;45870;42.528;26.740;2023-03-21T07:56:59;4.28;;;1.30;;
60018;SDS011;45870;42.528;26.740;2023-03-21T07:59:25;3.63;;;1.60;;
60018;SDS011;45870;42.528;26.740;2023-03-21T08:01:50;4.15;;;1.98;;
60018;SDS011;45870;42.528;26.740;2023-03-21T08:04:16;5.20;;;1.33;;
60018;SDS011;45870;42.528;26.740;2023-03-21T08:06:42;1.88;;;0.90;;
60018;SDS011;45870;42.528;26.740;2023-03-21T08:09:07;4.88;;;1.58;;
60018;SDS011;45870;42.528;26.740;2023-03-21T08:11:34;3.22;;;1.55;;
60018;SDS011;45870;42.528;26.740;2023-03-21T08:14:00;3.38;;;1.67;;
60018;SDS011;45870;42.528;26.740;2023-03-21T08:16:26;1.63;;;1.08;;
60018;SDS011;45870;42.528;26.740;2023-03-21T08:18:52;1.77;;;1.02;;
60018;SDS011;45870;42.528;26.740;2023-03-21T08:21:18;3.47;;;1.15;;
60018;SDS011;45870;42.528;26.740;2023-03-21T08:23:43;5.22;;;1.42;;
60018;SDS011;45870;42.528;26.740;2023-03-21T08:26:09;9.40;;;1.58;;
60018;SDS011;45870;42.528;26.740;2023-03-21T08:28:35;2.85;;;1.42;;
60018;SDS011;45870;42.528;26.740;2023-03-21T08:31:07;2.85;;;1.23;;
60018;SDS011;45870;42.528;26.740;2023-03-21T08:33:35;3.15;;;1.65;;
60018;SDS011;45870;42.528;26.740;2023-03-21T08:36:01;4.95;;;1.50;;
60018;SDS011;45870;42.528;26.740;2023-03-21T08:38:28;2.47;;;1.40;;
60018;SDS011;45870;42.528;26.740;2023-03-21T08:40:55;3.83;;;1.95;;
60018;SDS011;45870;42.528;26.740;2023-03-21T08:43:21;3.08;;;1.63;;
60018;SDS011;45870;42.528;26.740;2023-03-21T08:45:47;4.45;;;2.25;;
60018;SDS011;45870;42.528;26.740;2023-03-21T08:48:13;2.38;;;1.40;;
60018;SDS011;45870;42.528;26.740;2023-03-21T08:50:39;6.05;;;1.65;;
60018;SDS011;45870;42.528;26.740;2023-03-21T08:53:05;5.75;;;1.73;;
60018;SDS011;45870;42.528;26.740;2023-03-21T08:55:31;4.28;;;1.70;;
60018;SDS011;45870;42.528;26.740;2023-03-21T08:57:57;2.90;;;1.67;;
60018;SDS011;45870;42.528;26.740;2023-03-21T09:00:24;4.45;;;1.83;;
60018;SDS011;45870;42.528;26.740;2023-03-21T09:02:50;4.00;;;1.75;;
60018;SDS011;45870;42.528;26.740;2023-03-21T09:05:17;3.13;;;1.55;;
60018;SDS011;45870;42.528;26.740;2023-03-21T09:07:43;3.45;;;1.58;;
60018;SDS011;45870;42.528;26.740;2023-03-21T09:10:11;4.43;;;2.22;;
60018;SDS011;45870;42.528;26.740;2023-03-21T09:12:40;6.68;;;2.65;;
60018;SDS011;45870;42.528;26.740;2023-03-21T09:15:06;5.18;;;2.25;;
60018;SDS011;45870;42.528;26.740;2023-03-21T09:17:34;2.00;;;1.33;;
60018;SDS011;45870;42.528;26.740;2023-03-21T09:20:01;3.20;;;1.88;;
60018;SDS011;45870;42.528;26.740;2023-03-21T09:22:36;5.50;;;2.10;;
60018;SDS011;45870;42.528;26.740;2023-03-21T09:25:02;4.45;;;2.22;;
60018;SDS011;45870;42.528;26.740;2023-03-21T09:27:32;5.00;;;1.83;;
60018;SDS011;45870;42.528;26.740;2023-03-21T09:29:58;2.92;;;1.25;;
60018;SDS011;45870;42.528;26.740;2023-03-21T09:32:25;4.38;;;1.92;;
60018;SDS011;45870;42.528;26.740;2023-03-21T09:34:52;4.35;;;2.30;;
60018;SDS011;45870;42.528;26.740;2023-03-21T09:37:20;3.78;;;1.88;;
60018;SDS011;45870;42.528;26.740;2023-03-21T09:39:46;5.43;;;2.15;;
60018;SDS011;45870;42.528;26.740;2023-03-21T09:45:15;5.93;;;1.60;;
60018;SDS011;45870;42.528;26.740;2023-03-21T09:47:48;4.35;;;2.20;;
60018;SDS011;45870;42.528;26.740;2023-03-21T09:55:31;3.78;;;1.85;;
60018;SDS011;45870;42.528;26.740;2023-03-21T10:01:13;5.10;;;2.30;;
60018;SDS011;45870;42.528;26.740;2023-03-21T10:03:58;2.58;;;1.40;;
60018;SDS011;45870;42.528;26.740;2023-03-21T10:06:30;4.05;;;1.63;;
60018;SDS011;45870;42.528;26.740;2023-03-21T10:09:04;7.05;;;1.83;;
60018;SDS011;45870;42.528;26.740;2023-03-21T10:11:43;7.32;;;2.13;;
60018;SDS011;45870;42.528;26.740;2023-03-21T10:14:23;3.25;;;2.15;;
60018;SDS011;45870;42.528;26.740;2023-03-21T10:16:56;4.15;;;1.95;;
60018;SDS011;45870;42.528;26.740;2023-03-21T10:19:28;4.80;;;1.90;;
60018;SDS011;45870;42.528;26.740;2023-03-21T10:21:54;3.88;;;1.55;;
60018;SDS011;45870;42.528;26.740;2023-03-21T10:24:21;7.03;;;2.20;;
60018;SDS011;45870;42.528;26.740;2023-03-21T10:26:51;3.83;;;1.80;;
60018;SDS011;45870;42.528;26.740;2023-03-21T10:29:19;2.67;;;1.27;;
60018;SDS011;45870;42.528;26.740;2023-03-21T10:31:50;3.78;;;2.35;;
60018;SDS011;45870;42.528;26.740;2023-03-21T10:34:18;4.68;;;1.95;;
60018;SDS011;45870;42.528;26.740;2023-03-21T10:36:52;3.40;;;1.70;;
60018;SDS011;45870;42.528;26.740;2023-03-21T10:39:32;2.63;;;1.30;;
60018;SDS011;45870;42.528;26.740;2023-03-21T10:42:02;3.50;;;1.73;;
60018;SDS011;45870;42.528;26.740;2023-03-21T10:44:32;3.00;;;1.50;;
60018;SDS011;45870;42.528;26.740;2023-03-21T10:47:03;4.97;;;1.57;;
60018;SDS011;45870;42.528;26.740;2023-03-21T10:49:31;4.20;;;2.08;;
60018;SDS011;45870;42.528;26.740;2023-03-21T10:51:58;4.43;;;1.73;;
60018;SDS011;45870;42.528;26.740;2023-03-21T10:54:28;4.18;;;2.60;;
60018;SDS011;45870;42.528;26.740;2023-03-21T10:56:56;4.07;;;1.80;;
60018;SDS011;45870;42.528;26.740;2023-03-21T10:59:27;2.45;;;1.40;;
60018;SDS011;45870;42.528;26.740;2023-03-21T11:02:03;3.10;;;1.77;;
60018;SDS011;45870;42.528;26.740;2023-03-21T11:04:30;5.95;;;1.80;;
60018;SDS011;45870;42.528;26.740;2023-03-21T11:06:57;3.03;;;1.40;;
60018;SDS011;45870;42.528;26.740;2023-03-21T11:09:42;4.72;;;1.00;;
60018;SDS011;45870;42.528;26.740;2023-03-21T11:12:14;3.08;;;1.40;;
60018;SDS011;45870;42.528;26.740;2023-03-21T11:14:42;1.77;;;1.13;;
60018;SDS011;45870;42.528;26.740;2023-03-21T11:19:50;3.33;;;1.45;;
60018;SDS011;45870;42.528;26.740;2023-03-21T11:22:26;3.10;;;1.40;;
60018;SDS011;45870;42.528;26.740;2023-03-21T11:24:57;4.32;;;1.90;;
60018;SDS011;45870;42.528;26.740;2023-03-21T11:27:28;3.25;;;1.42;;
60018;SDS011;45870;42.528;26.740;2023-03-21T11:29:56;3.80;;;1.33;;
60018;SDS011;45870;42.528;26.740;2023-03-21T11:32:31;2.85;;;1.17;;
60018;SDS011;45870;42.528;26.740;2023-03-21T11:35:15;3.00;;;1.25;;
60018;SDS011;45870;42.528;26.740;2023-03-21T11:37:45;3.22;;;1.60;;
60018;SDS011;45870;42.528;26.740;2023-03-21T11:40:21;4.53;;;1.23;;
60018;SDS011;45870;42.528;26.740;2023-03-21T11:43:02;4.13;;;1.63;;
60018;SDS011;45870;42.528;26.740;2023-03-21T11:45:41;3.05;;;1.45;;
60018;SDS011;45870;42.528;26.740;2023-03-21T11:48:22;5.22;;;1.30;;
60018;SDS011;45870;42.528;26.740;2023-03-21T11:50:49;3.50;;;1.63;;
60018;SDS011;45870;42.528;26.740;2023-03-21T11:56:21;1.58;;;0.98;;
60018;SDS011;45870;42.528;26.740;2023-03-21T11:59:00;6.07;;;1.42;;
60018;SDS011;45870;42.528;26.740;2023-03-21T12:04:19;3.30;;;1.00;;
60018;SDS011;45870;42.528;26.740;2023-03-21T12:12:49;3.25;;;1.83;;
60018;SDS011;45870;42.528;26.740;2023-03-21T12:18:42;9.55;;;1.85;;
60018;SDS011;45870;42.528;26.740;2023-03-21T12:21:35;2.70;;;1.50;;
60018;SDS011;45870;42.528;26.740;2023-03-21T12:43:21;4.65;;;1.90;;
60018;SDS011;45870;42.528;26.740;2023-03-21T12:45:57;2.88;;;1.23;;
60018;SDS011;45870;42.528;26.740;2023-03-21T12:51:06;3.70;;;1.88;;
60018;SDS011;45870;42.528;26.740;2023-03-21T12:56:31;1.83;;;1.23;;
60018;SDS011;45870;42.528;26.740;2023-03-21T12:59:07;3.28;;;1.73;;
60018;SDS011;45870;42.528;26.740;2023-03-21T13:01:38;2.83;;;1.73;;
60018;SDS011;45870;42.528;26.740;2023-03-21T13:04:08;2.15;;;1.17;;
60018;SDS011;45870;42.528;26.740;2023-03-21T13:06:52;3.55;;;1.13;;
60018;SDS011;45870;42.528;26.740;2023-03-21T13:09:35;3.10;;;1.45;;
60018;SDS011;45870;42.528;26.740;2023-03-21T13:12:07;2.00;;;1.27;;
60018;SDS011;45870;42.528;26.740;2023-03-21T13:14:47;1.80;;;1.00;;
60018;SDS011;45870;42.528;26.740;2023-03-21T13:17:41;3.83;;;1.35;;
60018;SDS011;45870;42.528;26.740;2023-03-21T13:20:21;2.25;;;1.35;;
60018;SDS011;45870;42.528;26.740;2023-03-21T13:23:01;5.15;;;1.50;;
60018;SDS011;45870;42.528;26.740;2023-03-21T13:25:29;2.70;;;1.55;;
60018;SDS011;45870;42.528;26.740;2023-03-21T13:28:00;4.07;;;1.42;;
60018;SDS011;45870;42.528;26.740;2023-03-21T13:30:30;2.63;;;1.27;;
60018;SDS011;45870;42.528;26.740;2023-03-21T13:33:02;1.77;;;1.00;;
60018;SDS011;45870;42.528;26.740;2023-03-21T13:35:37;4.22;;;2.22;;
60018;SDS011;45870;42.528;26.740;2023-03-21T13:38:24;2.53;;;1.27;;
60018;SDS011;45870;42.528;26.740;2023-03-21T13:40:56;2.60;;;1.65;;
60018;SDS011;45870;42.528;26.740;2023-03-21T13:59:11;4.10;;;2.00;;
60018;SDS011;45870;42.528;26.740;2023-03-21T14:04:45;3.35;;;1.65;;
60018;SDS011;45870;42.528;26.740;2023-03-21T14:07:18;9.07;;;2.55;;
60018;SDS011;45870;42.528;26.740;2023-03-21T14:09:50;3.42;;;1.63;;
60018;SDS011;45870;42.528;26.740;2023-03-21T14:12:22;4.97;;;2.65;;
60018;SDS011;45870;42.528;26.740;2023-03-21T14:14:53;4.57;;;1.67;;
60018;SDS011;45870;42.528;26.740;2023-03-21T14:17:31;5.32;;;2.47;;
60018;SDS011;45870;42.528;26.740;2023-03-21T14:20:00;2.08;;;1.60;;
60018;SDS011;45870;42.528;26.740;2023-03-21T14:22:34;2.03;;;1.45;;
60018;SDS011;45870;42.528;26.740;2023-03-21T14:25:00;3.20;;;2.00;;
60018;SDS011;45870;42.528;26.740;2023-03-21T14:27:30;3.78;;;1.95;;
60018;SDS011;45870;42.528;26.740;2023-03-21T14:29:59;2.70;;;1.57;;
60018;SDS011;45870;42.528;26.740;2023-03-21T14:32:27;4.47;;;2.58;;
60018;SDS011;45870;42.528;26.740;2023-03-21T14:34:55;5.30;;;2.50;;
60018;SDS011;45870;42.528;26.740;2023-03-21T14:37:29;3.28;;;1.25;;
60018;SDS011;45870;42.528;26.740;2023-03-21T14:40:03;4.68;;;2.70;;
60018;SDS011;45870;42.528;26.740;2023-03-21T14:42:35;2.67;;;2.03;;
60018;SDS011;45870;42.528;26.740;2023-03-21T14:45:15;5.38;;;1.48;;
60018;SDS011;45870;42.528;26.740;2023-03-21T14:47:52;2.20;;;1.27;;
60018;SDS011;45870;42.528;26.740;2023-03-21T14:50:37;3.28;;;1.63;;
60018;SDS011;45870;42.528;26.740;2023-03-21T14:53:19;3.33;;;1.75;;
60018;SDS011;45870;42.528;26.740;2023-03-21T14:56:01;3.33;;;1.67;;
60018;SDS011;45870;42.528;26.740;2023-03-21T14:58:32;5.63;;;1.83;;
60018;SDS011;45870;42.528;26.740;2023-03-21T15:01:02;5.55;;;1.13;;
60018;SDS011;45870;42.528;26.740;2023-03-21T15:03:31;3.30;;;1.98;;
60018;SDS011;45870;42.528;26.740;2023-03-21T15:05:57;6.22;;;2.95;;
60018;SDS011;45870;42.528;26.740;2023-03-21T15:08:24;5.07;;;1.92;;
60018;SDS011;45870;42.528;26.740;2023-03-21T15:11:00;2.63;;;1.55;;
60018;SDS011;45870;42.528;26.740;2023-03-21T15:13:35;5.25;;;2.28;;
60018;SDS011;45870;42.528;26.740;2023-03-21T15:16:09;5.65;;;2.17;;
60018;SDS011;45870;42.528;26.740;2023-03-21T15:18:39;4.40;;;2.15;;
60018;SDS011;45870;42.528;26.740;2023-03-21T15:21:08;5.90;;;2.35;;
60018;SDS011;45870;42.528;26.740;2023-03-21T15:23:42;3.92;;;2.28;;
60018;SDS011;45870;42.528;26.740;2023-03-21T15:26:18;4.90;;;3.20;;
60018;SDS011;45870;42.528;26.740;2023-03-21T15:28:46;8.18;;;3.20;;
60018;SDS011;45870;42.528;26.740;2023-03-21T15:31:16;4.57;;;2.40;;
60018;SDS011;45870;42.528;26.740;2023-03-21T15:33:45;4.00;;;2.22;;
60018;SDS011;45870;42.528;26.740;2023-03-21T15:36:17;3.90;;;1.73;;
60018;SDS011;45870;42.528;26.740;2023-03-21T15:43:53;2.35;;;1.77;;
60018;SDS011;45870;42.528;26.740;2023-03-21T15:46:32;3.40;;;1.50;;
60018;SDS011;45870;42.528;26.740;2023-03-21T15:49:15;5.00;;;2.50;;
60018;SDS011;45870;42.528;26.740;2023-03-21T15:54:47;3.15;;;2.05;;
60018;SDS011;45870;42.528;26.740;2023-03-21T15:59:53;8.27;;;2.67;;
60018;SDS011;45870;42.528;26.740;2023-03-21T16:02:21;5.68;;;2.97;;
60018;SDS011;45870;42.528;26.740;2023-03-21T16:04:57;5.50;;;3.45;;
60018;SDS011;45870;42.528;26.740;2023-03-21T16:07:25;6.13;;;3.03;;
60018;SDS011;45870;42.528;26.740;2023-03-21T16:09:56;8.10;;;3.00;;
60018;SDS011;45870;42.528;26.740;2023-03-21T16:12:24;7.45;;;2.92;;
60018;SDS011;45870;42.528;26.740;2023-03-21T16:14:50;8.52;;;3.42;;
60018;SDS011;45870;42.528;26.740;2023-03-21T16:20:02;10.05;;;4.28;;
60018;SDS011;45870;42.528;26.740;2023-03-21T16:22:37;7.20;;;4.10;;
60018;SDS011;45870;42.528;26.740;2023-03-21T16:25:03;7.72;;;4.05;;
60018;SDS011;45870;42.528;26.740;2023-03-21T16:27:29;7.85;;;2.60;;
60018;SDS011;45870;42.528;26.740;2023-03-21T16:29:55;10.07;;;3.13;;
60018;SDS011;45870;42.528;26.740;2023-03-21T16:32:20;5.05;;;3.22;;
60018;SDS011;45870;42.528;26.740;2023-03-21T16:34:46;7.43;;;2.80;;
60018;SDS011;45870;42.528;26.740;2023-03-21T16:37:12;6.90;;;3.08;;
60018;SDS011;45870;42.528;26.740;2023-03-21T16:39:41;7.10;;;3.35;;
60018;SDS011;45870;42.528;26.740;2023-03-21T16:42:09;6.88;;;3.45;;
60018;SDS011;45870;42.528;26.740;2023-03-21T16:44:36;3.60;;;2.15;;
60018;SDS011;45870;42.528;26.740;2023-03-21T16:47:09;5.00;;;2.63;;
60018;SDS011;45870;42.528;26.740;2023-03-21T16:49:41;7.95;;;3.05;;
60018;SDS011;45870;42.528;26.740;2023-03-21T16:52:08;4.40;;;3.22;;
60018;SDS011;45870;42.528;26.740;2023-03-21T16:54:36;3.45;;;3.13;;
60018;SDS011;45870;42.528;26.740;2023-03-21T16:57:02;6.68;;;3.97;;
60018;SDS011;45870;42.528;26.740;2023-03-21T16:59:32;5.18;;;2.47;;